Time;durP1;ratioP1;P1;durP2;ratioP2;P2;SDS_P1;SDS_P2;PMS_P1;PMS_P2;Temp;Humidity;BMP_temperature;BMP_pressure;BME280_temperature;BME280_humidity;BME280_pressure;Samples;Min_cycle;Max_cycle;Signal;HPM_P1;HPM_P2
2022/07/17 00:00:42;;;;;;;3.13;2.10;;;11.30;99.90;;;;;;5091499;28;20040;-78
2022/07/17 00:03:12;;;;;;;1.33;1.00;;;11.30;99.90;;;;;;5073550;28;20115;-78
2022/07/17 00:05:38;;;;;;;6.15;2.03;;;11.30;99.90;;;;;;5073769;28;20040;-78
2022/07/17 00:08:06;;;;;;;4.72;1.35;;;11.30;99.90;;;;;;5091579;28;20048;-78
2022/07/17 00:10:32;;;;;;;2.13;1.30;;;11.30;99.90;;;;;;5057214;28;20443;-78
2022/07/17 00:12:58;;;;;;;2.70;1.40;;;11.30;99.90;;;;;;5073775;28;20043;-78
2022/07/17 00:15:23;;;;;;;2.90;1.20;;;11.30;99.90;;;;;;5091075;28;20391;-77
2022/07/17 00:17:49;;;;;;;5.18;1.58;;;11.30;99.90;;;;;;5091243;28;20028;-77
2022/07/17 00:20:15;;;;;;;4.40;2.13;;;11.30;99.90;;;;;;5072484;28;20039;-77
2022/07/17 00:22:42;;;;;;;2.90;1.40;;;11.20;99.90;;;;;;5056140;28;20517;-78
2022/07/17 00:25:09;;;;;;;4.80;1.35;;;11.20;99.90;;;;;;5072466;28;20461;-77
2022/07/17 00:27:36;;;;;;;4.07;1.42;;;11.20;99.90;;;;;;5073011;28;20434;-78
2022/07/17 00:30:02;;;;;;;1.73;0.95;;;11.10;99.90;;;;;;5075824;28;20383;-78
2022/07/17 00:32:28;;;;;;;3.50;1.55;;;11.10;99.90;;;;;;5077067;28;20047;-78
2022/07/17 00:34:54;;;;;;;5.63;1.63;;;11.00;99.90;;;;;;5077214;28;20042;-78
2022/07/17 00:37:19;;;;;;;3.72;1.38;;;11.00;99.90;;;;;;5077286;28;20036;-77
2022/07/17 00:39:45;;;;;;;2.00;1.40;;;11.00;99.90;;;;;;5079756;28;20048;-77
2022/07/17 00:42:12;;;;;;;1.70;1.50;;;11.00;99.90;;;;;;5099219;28;20023;-78
2022/07/17 00:44:40;;;;;;;3.10;1.25;;;10.80;99.90;;;;;;5098238;28;20043;-77
2022/07/17 00:47:19;;;;;;;2.67;1.33;;;10.90;99.90;;;;;;5078326;28;20051;-78
2022/07/17 00:49:46;;;;;;;3.90;1.60;;;10.90;99.90;;;;;;5059791;28;20036;-78
2022/07/17 00:52:14;;;;;;;4.15;1.50;;;10.90;99.90;;;;;;5076308;28;20534;-78
2022/07/17 00:54:41;;;;;;;6.65;1.88;;;10.90;99.90;;;;;;5076360;28;20036;-78
2022/07/17 00:57:10;;;;;;;7.00;1.48;;;11.00;99.90;;;;;;5076672;28;20048;-78
2022/07/17 00:59:37;;;;;;;4.10;1.45;;;10.90;99.90;;;;;;5076629;28;20651;-78
2022/07/17 01:02:07;;;;;;;5.95;1.67;;;10.90;99.90;;;;;;5060019;28;20040;-78
2022/07/17 01:04:36;;;;;;;2.65;1.50;;;10.80;99.90;;;;;;5076472;28;20052;-78
2022/07/17 01:07:04;;;;;;;3.58;1.33;;;10.90;99.90;;;;;;5076306;28;20048;-78
2022/07/17 01:09:30;;;;;;;4.22;1.40;;;10.90;99.90;;;;;;5094723;28;20147;-78
2022/07/17 01:11:56;;;;;;;3.08;1.92;;;10.80;99.90;;;;;;5076422;28;20398;-78
2022/07/17 01:14:24;;;;;;;2.85;1.52;;;10.80;99.90;;;;;;5059273;28;20044;-78
2022/07/17 01:16:50;;;;;;;3.83;1.67;;;10.80;99.90;;;;;;5093139;28;20409;-78
2022/07/17 01:19:16;;;;;;;1.88;1.33;;;10.70;99.90;;;;;;5076313;28;20040;-78
2022/07/17 01:21:44;;;;;;;6.95;1.58;;;10.80;99.90;;;;;;5094211;28;20051;-78
2022/07/17 01:24:10;;;;;;;6.20;1.60;;;10.80;99.90;;;;;;5076317;28;20081;-78
2022/07/17 01:26:36;;;;;;;4.28;1.70;;;10.70;99.90;;;;;;5076098;28;20424;-78
2022/07/17 01:29:02;;;;;;;5.40;1.88;;;10.70;99.90;;;;;;5093909;28;20082;-78
2022/07/17 01:31:28;;;;;;;4.03;1.65;;;10.70;99.90;;;;;;5094044;28;20044;-78
2022/07/17 01:33:54;;;;;;;2.85;1.80;;;10.60;99.90;;;;;;5094047;28;20193;-78
2022/07/17 01:36:24;;;;;;;3.67;1.40;;;10.70;99.90;;;;;;5075647;28;20036;-78
2022/07/17 01:38:50;;;;;;;2.15;1.20;;;10.70;99.90;;;;;;5075825;28;20051;-78
2022/07/17 01:41:15;;;;;;;8.18;1.58;;;10.70;99.90;;;;;;5075427;28;20051;-78
2022/07/17 01:43:41;;;;;;;3.55;1.75;;;10.60;99.90;;;;;;5075706;28;20487;-78
2022/07/17 01:46:07;;;;;;;2.63;1.40;;;10.60;99.90;;;;;;5059071;28;20040;-78
2022/07/17 01:48:32;;;;;;;2.88;1.70;;;10.60;99.90;;;;;;5075549;28;20410;-78
2022/07/17 01:50:58;;;;;;;3.45;1.65;;;10.60;99.90;;;;;;5075472;28;20032;-78
2022/07/17 01:53:24;;;;;;;5.30;1.50;;;10.50;99.90;;;;;;5075656;28;20070;-78
2022/07/17 01:55:50;;;;;;;5.43;1.65;;;10.50;99.90;;;;;;5058598;28;20093;-77
2022/07/17 01:58:15;;;;;;;3.85;1.70;;;10.50;99.90;;;;;;5075436;28;20044;-77
2022/07/17 02:00:42;;;;;;;4.25;1.40;;;10.50;99.90;;;;;;5075097;28;20042;-77
2022/07/17 02:03:07;;;;;;;4.80;1.73;;;10.30;99.90;;;;;;5075364;28;20538;-77
2022/07/17 02:05:33;;;;;;;3.08;1.83;;;10.40;99.90;;;;;;5075371;28;20044;-77
2022/07/17 02:07:59;;;;;;;4.40;1.70;;;10.40;99.90;;;;;;5075120;28;20040;-77
2022/07/17 02:10:25;;;;;;;2.47;1.33;;;10.40;99.90;;;;;;5074990;28;20032;-78
2022/07/17 02:12:51;;;;;;;5.20;1.70;;;10.30;99.90;;;;;;5075588;28;20415;-77
2022/07/17 02:15:16;;;;;;;5.15;1.77;;;10.40;99.90;;;;;;5075478;28;20036;-78
2022/07/17 02:17:43;;;;;;;6.32;2.10;;;10.40;99.90;;;;;;5076886;28;20452;-77
2022/07/17 02:20:10;;;;;;;2.60;1.83;;;10.30;99.90;;;;;;5076754;28;20048;-78
2022/07/17 02:22:37;;;;;;;3.17;1.50;;;10.30;99.90;;;;;;5076983;28;20047;-77
2022/07/17 02:25:03;;;;;;;2.47;1.60;;;10.30;99.90;;;;;;5076268;28;20052;-77
2022/07/17 02:27:31;;;;;;;3.90;1.67;;;10.30;99.90;;;;;;5076847;28;20043;-78
2022/07/17 02:29:57;;;;;;;2.15;1.50;;;10.30;99.90;;;;;;5076163;28;20044;-77
2022/07/17 02:32:22;;;;;;;7.13;1.90;;;10.30;99.90;;;;;;5075829;28;20067;-77
2022/07/17 02:34:48;;;;;;;3.58;1.60;;;10.30;99.90;;;;;;5076217;28;20085;-78
2022/07/17 02:37:14;;;;;;;4.55;1.60;;;10.30;99.90;;;;;;5076244;28;20032;-77
2022/07/17 02:39:52;;;;;;;4.15;1.70;;;10.30;99.90;;;;;;5076171;28;20105;-78
2022/07/17 02:42:19;;;;;;;2.75;1.42;;;10.30;99.90;;;;;;5076347;28;20386;-77
2022/07/17 02:44:45;;;;;;;3.83;1.75;;;10.30;99.90;;;;;;5060112;28;20070;-78
2022/07/17 02:47:11;;;;;;;3.63;1.83;;;10.20;99.90;;;;;;5076150;28;20044;-77
2022/07/17 02:49:37;;;;;;;3.72;1.52;;;10.20;99.90;;;;;;5094164;28;20495;-78
2022/07/17 02:52:02;;;;;;;6.28;1.85;;;10.20;99.90;;;;;;5075733;28;20040;-77
2022/07/17 02:54:28;;;;;;;4.53;1.80;;;10.20;99.90;;;;;;5076292;28;20544;-78
2022/07/17 02:56:53;;;;;;;4.97;1.92;;;10.20;99.90;;;;;;5059180;28;20132;-78
2022/07/17 02:59:19;;;;;;;7.55;1.48;;;10.20;99.90;;;;;;5075684;28;20032;-78
2022/07/17 03:01:45;;;;;;;4.50;1.95;;;10.20;99.90;;;;;;5075821;28;20092;-78
2022/07/17 03:04:10;;;;;;;4.93;1.98;;;10.20;99.90;;;;;;5075370;28;20123;-78
2022/07/17 03:06:36;;;;;;;3.20;2.10;;;10.10;99.90;;;;;;5093905;28;20040;-78
2022/07/17 03:09:01;;;;;;;4.40;1.85;;;10.20;99.90;;;;;;5075481;28;20122;-77
2022/07/17 03:11:27;;;;;;;2.38;1.60;;;10.10;99.90;;;;;;5075481;28;20038;-77
2022/07/17 03:13:53;;;;;;;3.90;1.80;;;10.10;99.90;;;;;;5075635;28;20069;-78
2022/07/17 03:16:18;;;;;;;2.97;1.70;;;10.00;99.90;;;;;;5059067;28;20040;-78
2022/07/17 03:18:44;;;;;;;4.25;2.13;;;9.90;99.90;;;;;;5075740;28;20052;-77
2022/07/17 03:21:09;;;;;;;3.05;1.92;;;10.00;99.90;;;;;;5075587;28;20050;-78
2022/07/17 03:23:35;;;;;;;3.60;1.60;;;10.00;99.90;;;;;;5058732;28;20123;-78
2022/07/17 03:26:00;;;;;;;2.05;1.83;;;10.00;99.90;;;;;;5075426;28;20039;-77
2022/07/17 03:28:26;;;;;;;3.80;1.90;;;10.00;99.90;;;;;;5093627;28;20044;-77
2022/07/17 03:30:52;;;;;;;5.30;2.10;;;10.00;99.90;;;;;;5075038;28;20043;-78
2022/07/17 03:33:17;;;;;;;4.63;2.08;;;10.00;99.90;;;;;;5058215;28;20097;-78
2022/07/17 03:35:43;;;;;;;3.63;1.60;;;9.90;99.90;;;;;;5074782;28;20044;-78
2022/07/17 03:38:08;;;;;;;6.60;2.00;;;10.10;99.90;;;;;;5092906;28;20133;-78
2022/07/17 03:40:34;;;;;;;5.93;2.05;;;10.00;99.90;;;;;;5074805;28;20399;-78
2022/07/17 03:42:59;;;;;;;5.47;2.15;;;10.00;99.90;;;;;;5058418;28;20077;-78
2022/07/17 03:45:25;;;;;;;6.63;3.20;;;10.00;99.90;;;;;;5074863;28;20104;-78
2022/07/17 03:47:51;;;;;;;4.90;2.10;;;10.00;99.90;;;;;;5074683;28;20047;-78
2022/07/17 03:50:16;;;;;;;3.78;1.55;;;10.10;99.90;;;;;;5074386;28;20075;-77
2022/07/17 03:52:42;;;;;;;4.50;1.65;;;10.00;99.90;;;;;;5074756;28;20069;-78
2022/07/17 03:55:08;;;;;;;4.05;2.08;;;10.00;99.90;;;;;;5074943;28;20127;-78
2022/07/17 03:57:34;;;;;;;8.40;2.13;;;10.00;99.90;;;;;;5074612;28;20038;-77
2022/07/17 03:59:59;;;;;;;4.32;1.95;;;10.00;99.90;;;;;;5074304;28;20035;-78
2022/07/17 04:02:25;;;;;;;4.07;2.20;;;10.00;99.90;;;;;;5075180;28;20048;-77
2022/07/17 04:04:51;;;;;;;2.85;1.45;;;10.00;99.90;;;;;;5062928;28;20036;-78
2022/07/17 04:07:28;;;;;;;4.28;1.75;;;10.10;99.90;;;;;;5078460;28;20700;-78
2022/07/17 04:09:56;;;;;;;4.85;1.83;;;10.10;99.90;;;;;;5067477;28;20044;-75
2022/07/17 04:12:21;;;;;;;5.35;2.00;;;10.20;99.90;;;;;;5103111;28;20083;-76
2022/07/17 04:14:48;;;;;;;6.93;2.35;;;10.20;99.90;;;;;;5099473;28;20043;-77
2022/07/17 04:17:13;;;;;;;5.63;2.03;;;10.20;99.90;;;;;;5078173;28;20043;-77
2022/07/17 04:19:39;;;;;;;4.72;2.45;;;10.30;99.90;;;;;;5078168;28;20452;-78
2022/07/17 04:22:04;;;;;;;6.38;1.98;;;10.40;99.90;;;;;;5078611;28;20055;-78
2022/07/17 04:24:30;;;;;;;4.55;1.75;;;10.50;99.90;;;;;;5078795;28;20491;-77
2022/07/17 04:26:55;;;;;;;2.45;1.92;;;10.50;99.90;;;;;;5061365;28;20036;-77
2022/07/17 04:29:21;;;;;;;3.38;1.88;;;10.60;99.90;;;;;;5077882;28;20036;-78
2022/07/17 04:31:46;;;;;;;6.68;1.85;;;10.60;99.90;;;;;;5061419;28;20116;-78
2022/07/17 04:34:12;;;;;;;5.28;2.00;;;10.70;99.90;;;;;;5095953;28;20048;-78
2022/07/17 04:36:38;;;;;;;6.38;2.05;;;10.70;99.90;;;;;;5078215;28;20100;-77
2022/07/17 04:39:03;;;;;;;6.55;2.03;;;10.80;99.90;;;;;;5077973;28;20046;-78
2022/07/17 04:41:29;;;;;;;5.13;1.60;;;10.90;99.90;;;;;;5077874;28;20036;-78
2022/07/17 04:43:54;;;;;;;6.38;2.05;;;11.00;99.90;;;;;;5077909;28;20043;-78
2022/07/17 04:46:20;;;;;;;4.68;1.80;;;11.10;99.90;;;;;;5061537;28;20068;-77
2022/07/17 04:48:46;;;;;;;5.57;1.90;;;11.10;99.90;;;;;;5077913;28;20032;-78
2022/07/17 04:51:11;;;;;;;4.32;1.88;;;11.20;99.90;;;;;;5061625;28;20113;-78
2022/07/17 04:53:37;;;;;;;5.45;1.75;;;11.30;99.90;;;;;;5077876;28;20071;-78
2022/07/17 04:56:03;;;;;;;4.78;1.85;;;11.40;99.90;;;;;;5061121;28;20453;-77
2022/07/17 04:58:29;;;;;;;3.92;1.80;;;11.40;99.90;;;;;;5076950;28;20028;-77
2022/07/17 05:00:54;;;;;;;4.00;3.08;;;11.60;99.90;;;;;;5077467;28;20035;-78
2022/07/17 05:03:20;;;;;;;9.55;1.92;;;11.60;99.90;;;;;;5077983;28;20040;-78
2022/07/17 05:05:46;;;;;;;3.30;1.63;;;11.70;99.90;;;;;;5060922;28;20044;-78
2022/07/17 05:08:11;;;;;;;2.97;1.75;;;11.80;99.90;;;;;;5077415;28;20399;-78
2022/07/17 05:10:37;;;;;;;4.85;2.42;;;12.10;99.90;;;;;;5060462;28;20074;-77
2022/07/17 05:13:03;;;;;;;3.92;2.42;;;12.20;99.90;;;;;;5077624;28;20054;-77
2022/07/17 05:15:28;;;;;;;5.90;2.33;;;12.30;99.90;;;;;;5060150;28;20047;-78
2022/07/17 05:17:54;;;;;;;7.68;2.08;;;12.40;99.90;;;;;;5060574;28;20044;-78
2022/07/17 05:20:20;;;;;;;4.47;2.10;;;12.50;99.90;;;;;;5095287;28;20040;-78
2022/07/17 05:22:45;;;;;;;6.20;2.05;;;12.70;99.90;;;;;;5060697;28;20051;-77
2022/07/17 05:25:11;;;;;;;3.67;1.70;;;12.90;99.90;;;;;;5095684;28;20126;-78
2022/07/17 05:27:36;;;;;;;2.88;2.00;;;12.90;99.90;;;;;;5077120;28;20051;-78
2022/07/17 05:30:04;;;;;;;7.25;2.05;;;13.00;99.90;;;;;;5060242;28;20097;-76
2022/07/17 05:32:29;;;;;;;4.55;2.05;;;13.00;99.90;;;;;;5077243;28;20063;-76
2022/07/17 05:34:55;;;;;;;5.47;2.22;;;13.00;99.90;;;;;;5095388;28;20453;-78
2022/07/17 05:37:21;;;;;;;6.18;2.10;;;13.10;99.90;;;;;;5076714;28;20525;-78
2022/07/17 05:39:46;;;;;;;4.72;2.55;;;13.20;99.90;;;;;;5060452;28;20067;-78
2022/07/17 05:42:12;;;;;;;6.00;2.25;;;13.20;99.90;;;;;;5077077;28;20036;-78
2022/07/17 05:44:38;;;;;;;4.40;1.88;;;13.40;99.90;;;;;;5060460;28;20406;-76
2022/07/17 05:47:03;;;;;;;7.80;2.45;;;13.40;99.90;;;;;;5076724;28;20486;-78
2022/07/17 05:49:29;;;;;;;3.17;1.80;;;13.50;99.90;;;;;;5077042;28;20071;-76
2022/07/17 05:51:54;;;;;;;6.10;1.48;;;13.70;99.90;;;;;;5077030;28;20048;-78
2022/07/17 05:54:20;;;;;;;4.93;1.77;;;13.70;99.90;;;;;;5076827;28;20040;-77
2022/07/17 05:56:46;;;;;;;3.05;1.48;;;13.90;99.90;;;;;;5076868;28;20486;-78
2022/07/17 05:59:11;;;;;;;3.40;1.77;;;13.90;99.90;;;;;;5077475;28;20040;-78
2022/07/17 06:01:37;;;;;;;3.15;1.35;;;13.90;99.90;;;;;;5076835;28;20059;-78
2022/07/17 06:04:02;;;;;;;4.45;1.42;;;14.00;99.90;;;;;;5077129;28;20094;-78
2022/07/17 06:06:28;;;;;;;7.55;1.77;;;14.10;99.90;;;;;;5095048;28;20036;-78
2022/07/17 06:08:54;;;;;;;4.97;1.40;;;14.20;99.90;;;;;;5077164;28;20604;-78
2022/07/17 06:11:19;;;;;;;4.68;1.50;;;14.40;99.90;;;;;;5076922;28;20044;-78
2022/07/17 06:13:45;;;;;;;5.97;1.50;;;14.40;99.90;;;;;;5060522;28;20036;-78
2022/07/17 06:16:10;;;;;;;8.43;1.60;;;14.50;99.90;;;;;;5076415;28;20765;-79
2022/07/17 06:18:36;;;;;;;4.88;1.77;;;14.60;99.90;;;;;;5059908;28;20097;-79
2022/07/17 06:21:02;;;;;;;2.40;1.25;;;14.80;99.90;;;;;;5077077;28;20101;-79
2022/07/17 06:23:27;;;;;;;4.68;1.85;;;15.10;99.90;;;;;;5060669;28;20039;-79
2022/07/17 06:25:53;;;;;;;2.28;1.08;;;15.40;99.90;;;;;;5094903;28;20055;-77
2022/07/17 06:28:18;;;;;;;6.57;1.90;;;15.60;99.90;;;;;;5076866;28;20043;-79
2022/07/17 06:30:44;;;;;;;1.75;1.30;;;16.20;99.90;;;;;;5059585;28;20043;-79
2022/07/17 06:33:09;;;;;;;7.90;1.67;;;16.90;99.90;;;;;;5094343;28;20054;-79
2022/07/17 06:35:35;;;;;;;6.20;1.70;;;17.60;99.90;;;;;;5075093;28;20046;-79
2022/07/17 06:38:04;;;;;;;5.90;1.45;;;18.30;99.90;;;;;;5075070;28;20062;-78
2022/07/17 06:40:30;;;;;;;7.03;1.52;;;18.90;99.90;;;;;;5075798;28;20495;-79
2022/07/17 06:42:55;;;;;;;4.95;1.42;;;19.50;99.90;;;;;;5093799;28;20043;-79
2022/07/17 06:45:22;;;;;;;3.92;1.55;;;19.90;99.90;;;;;;5094116;28;20113;-79
2022/07/17 06:47:47;;;;;;;3.53;1.08;;;20.30;99.90;;;;;;5076201;28;20035;-79
2022/07/17 06:50:13;;;;;;;2.45;0.80;;;20.70;99.90;;;;;;5075891;28;20062;-80
2022/07/17 06:52:38;;;;;;;5.28;1.20;;;21.00;99.90;;;;;;5092308;28;20491;-80
2022/07/17 06:55:04;;;;;;;3.90;1.15;;;21.10;99.90;;;;;;5093536;28;20044;-79
2022/07/17 06:57:30;;;;;;;5.50;0.90;;;21.40;99.90;;;;;;5094796;28;20085;-79
2022/07/17 06:59:56;;;;;;;3.63;0.70;;;21.60;99.90;;;;;;5094387;28;20101;-79
2022/07/17 07:02:21;;;;;;;4.03;0.65;;;21.70;99.90;;;;;;5092366;28;20435;-81
2022/07/17 07:04:47;;;;;;;3.22;0.93;;;22.00;99.90;;;;;;5093071;28;20087;-80
2022/07/17 07:07:12;;;;;;;4.40;1.15;;;22.10;99.90;;;;;;5074634;28;20051;-80
2022/07/17 07:09:38;;;;;;;5.40;0.90;;;22.10;99.90;;;;;;5092019;28;20036;-79
2022/07/17 07:12:04;;;;;;;4.60;1.10;;;22.10;99.90;;;;;;5075227;28;20577;-80
2022/07/17 07:14:29;;;;;;;2.63;0.70;;;22.30;99.90;;;;;;5092906;28;20039;-81
2022/07/17 07:16:55;;;;;;;3.15;0.90;;;22.30;99.90;;;;;;5074480;28;20487;-80
2022/07/17 07:19:21;;;;;;;4.43;0.93;;;22.40;99.90;;;;;;5058412;28;20047;-80
2022/07/17 07:21:46;;;;;;;3.63;0.90;;;22.50;99.50;;;;;;5057225;28;20039;-80
2022/07/17 07:24:12;;;;;;;3.60;0.75;;;22.80;98.80;;;;;;5092988;28;20078;-80
2022/07/17 07:26:37;;;;;;;5.05;0.93;;;23.00;97.00;;;;;;5093031;28;20035;-81
2022/07/17 07:29:03;;;;;;;4.78;1.05;;;23.20;96.00;;;;;;5093622;28;20123;-78
2022/07/17 07:31:29;;;;;;;5.30;0.70;;;23.30;95.20;;;;;;5075805;28;20143;-80
2022/07/17 07:33:54;;;;;;;3.33;0.75;;;23.30;94.30;;;;;;5076707;28;20637;-80
2022/07/17 07:36:20;;;;;;;2.78;0.50;;;23.30;93.20;;;;;;5093506;28;20089;-80
2022/07/17 07:38:45;;;;;;;4.38;0.90;;;23.30;92.60;;;;;;5093190;28;20117;-79
2022/07/17 07:41:11;;;;;;;3.35;0.70;;;23.30;92.20;;;;;;5093881;28;20074;-79
2022/07/17 07:43:37;;;;;;;3.58;0.80;;;23.40;91.80;;;;;;5095001;28;20153;-79
2022/07/17 07:46:03;;;;;;;4.50;0.90;;;23.60;90.40;;;;;;5077085;28;20064;-80
2022/07/17 07:48:29;;;;;;;4.10;0.88;;;23.80;88.80;;;;;;5059652;28;20055;-80
2022/07/17 07:50:55;;;;;;;3.13;0.80;;;23.80;88.20;;;;;;5057978;28;20115;-83
2022/07/17 07:53:21;;;;;;;3.83;0.73;;;23.90;85.90;;;;;;5073382;28;20032;-84
2022/07/17 07:55:47;;;;;;;2.40;0.50;;;24.00;84.20;;;;;;5057233;28;20051;-83
2022/07/17 07:58:13;;;;;;;5.13;1.00;;;23.80;81.80;;;;;;5074413;28;20044;-82
2022/07/17 08:00:40;;;;;;;1.98;0.55;;;24.00;82.60;;;;;;5096801;28;20020;-82
2022/07/17 08:03:06;;;;;;;3.88;0.82;;;24.00;82.30;;;;;;5096139;28;20044;-83
2022/07/17 08:05:32;;;;;;;5.40;0.68;;;24.10;80.30;;;;;;5112057;28;20092;-81
2022/07/17 08:07:58;;;;;;;4.97;1.17;;;24.40;78.90;;;;;;5068614;28;20040;-82
2022/07/17 08:10:24;;;;;;;3.25;1.00;;;24.40;79.00;;;;;;5056288;28;20120;-83
2022/07/17 08:12:50;;;;;;;3.83;0.82;;;24.50;77.80;;;;;;5073905;28;20131;-82
2022/07/17 08:15:18;;;;;;;1.98;0.65;;;24.40;75.40;;;;;;5056299;28;20040;-84
2022/07/17 08:17:44;;;;;;;4.28;0.80;;;24.40;75.20;;;;;;5056584;28;20104;-83
2022/07/17 08:20:11;;;;;;;4.75;0.60;;;24.30;75.80;;;;;;5073135;28;20047;-83
2022/07/17 08:22:37;;;;;;;2.05;0.68;;;24.40;74.00;;;;;;5073054;28;20118;-83
2022/07/17 08:25:03;;;;;;;3.20;0.90;;;24.30;74.60;;;;;;5056278;28;20162;-83
2022/07/17 08:27:35;;;;;;;2.88;0.70;;;24.40;74.80;;;;;;5056085;28;20382;-82
2022/07/17 08:30:02;;;;;;;3.85;0.60;;;24.40;75.70;;;;;;5056127;28;20043;-83
2022/07/17 08:32:28;;;;;;;4.13;0.68;;;24.60;75.00;;;;;;5056859;28;20043;-85
2022/07/17 08:34:53;;;;;;;5.05;0.60;;;24.50;73.70;;;;;;5073506;28;20126;-84
2022/07/17 08:37:19;;;;;;;4.15;0.70;;;24.60;72.60;;;;;;5056268;28;20036;-84
2022/07/17 08:39:45;;;;;;;4.53;0.80;;;24.60;72.50;;;;;;5073093;28;20032;-84
2022/07/17 08:42:15;;;;;;;5.63;0.80;;;24.70;72.00;;;;;;5073317;28;20040;-83
2022/07/17 08:44:45;;;;;;;1.17;0.55;;;24.80;70.90;;;;;;5056826;28;20047;-85
2022/07/17 08:47:12;;;;;;;4.20;0.82;;;24.90;69.80;;;;;;5073087;28;20154;-85
2022/07/17 08:49:43;;;;;;;4.32;0.47;;;24.80;68.20;;;;;;5073678;28;20070;-86
2022/07/17 08:52:10;;;;;;;2.85;0.52;;;24.80;67.90;;;;;;5077076;28;20093;-86
2022/07/17 08:54:36;;;;;;;3.45;0.70;;;24.70;67.80;;;;;;5076411;28;20051;-86
2022/07/17 08:57:03;;;;;;;4.57;0.80;;;24.70;68.20;;;;;;5060054;28;20150;-83
2022/07/17 08:59:29;;;;;;;4.63;0.65;;;24.90;67.50;;;;;;5076357;28;20038;-85
2022/07/17 09:01:55;;;;;;;3.13;0.60;;;25.00;66.60;;;;;;5076741;28;20039;-84
2022/07/17 09:04:20;;;;;;;2.42;0.52;;;25.00;65.80;;;;;;5094688;28;20036;-85
2022/07/17 09:06:46;;;;;;;2.72;0.75;;;24.90;64.90;;;;;;5076366;28;20051;-85
2022/07/17 09:09:14;;;;;;;4.13;0.88;;;24.50;64.80;;;;;;5059608;28;20518;-86
2022/07/17 09:11:52;;;;;;;3.78;0.70;;;24.50;66.20;;;;;;5076193;28;20044;-85
2022/07/17 09:14:20;;;;;;;2.97;0.65;;;24.50;66.90;;;;;;5076206;28;20058;-84
2022/07/17 09:16:57;;;;;;;3.10;0.93;;;24.60;67.40;;;;;;5076316;28;20115;-86
2022/07/17 09:19:30;;;;;;;5.43;1.00;;;24.60;65.30;;;;;;5059392;28;20071;-86
2022/07/17 09:22:17;;;;;;;2.63;0.75;;;24.60;66.70;;;;;;5076180;28;20042;-85
2022/07/17 09:24:43;;;;;;;2.72;0.70;;;24.70;64.10;;;;;;5059482;28;20051;-84
2022/07/17 09:27:09;;;;;;;2.92;0.65;;;24.50;66.80;;;;;;5076770;28;20115;-85
2022/07/17 09:29:53;;;;;;;4.00;0.68;;;24.80;66.60;;;;;;5076302;28;20101;-85
2022/07/17 09:32:20;;;;;;;2.08;0.70;;;24.90;63.90;;;;;;5094330;28;20050;-85
2022/07/17 09:34:50;;;;;;;6.38;0.85;;;25.00;64.50;;;;;;5075951;28;20047;-85
2022/07/17 09:37:17;;;;;;;2.88;0.70;;;24.80;64.20;;;;;;5078573;28;20606;-85
2022/07/17 09:39:42;;;;;;;3.22;0.70;;;24.70;65.50;;;;;;5079029;28;20057;-86
2022/07/17 09:42:09;;;;;;;3.30;0.60;;;24.70;65.80;;;;;;5077900;28;20036;-84
2022/07/17 09:44:34;;;;;;;3.25;0.65;;;24.80;65.60;;;;;;5076652;28;20047;-86
2022/07/17 09:47:01;;;;;;;2.45;0.70;;;25.00;65.40;;;;;;5076360;28;20039;-85
2022/07/17 09:49:28;;;;;;;0.80;0.47;;;25.30;65.00;;;;;;5076384;28;20502;-85
2022/07/17 09:51:54;;;;;;;4.93;1.00;;;25.30;64.60;;;;;;5078650;28;20487;-85
2022/07/17 09:54:23;;;;;;;2.40;0.75;;;25.40;64.10;;;;;;5081558;28;20083;-85
2022/07/17 09:56:50;;;;;;;2.63;0.80;;;25.60;63.00;;;;;;5080637;28;20040;-84
2022/07/17 09:59:17;;;;;;;3.95;0.70;;;25.70;63.00;;;;;;5075244;28;20081;-85
2022/07/17 10:01:45;;;;;;;2.05;0.77;;;25.60;63.00;;;;;;5074864;28;20048;-85
2022/07/17 10:04:14;;;;;;;5.65;0.70;;;25.70;62.90;;;;;;5058804;28;20402;-85
2022/07/17 10:06:40;;;;;;;3.00;0.73;;;26.00;63.50;;;;;;5058934;28;20506;-84
2022/07/17 10:09:05;;;;;;;2.38;0.70;;;26.00;63.00;;;;;;5075369;28;20048;-84
2022/07/17 10:11:34;;;;;;;4.93;0.65;;;26.30;61.30;;;;;;5074637;28;20063;-84
2022/07/17 10:14:10;;;;;;;1.88;0.75;;;26.20;61.90;;;;;;5091869;28;20068;-85
2022/07/17 10:16:38;;;;;;;5.75;0.90;;;26.20;64.30;;;;;;5058001;28;20036;-82
2022/07/17 10:19:17;;;;;;;5.65;1.30;;;26.10;62.30;;;;;;5059108;28;20051;-82
2022/07/17 10:21:55;;;;;;;3.10;0.70;;;26.20;60.00;;;;;;5075563;28;20533;-82
2022/07/17 10:24:21;;;;;;;2.08;0.80;;;26.00;59.30;;;;;;5076393;28;20574;-82
2022/07/17 10:26:49;;;;;;;4.00;0.85;;;26.00;60.40;;;;;;5058412;28;20071;-82
2022/07/17 10:29:38;;;;;;;3.22;0.65;;;26.00;59.50;;;;;;5074210;28;20537;-82
2022/07/17 10:32:13;;;;;;;2.50;0.80;;;25.90;59.70;;;;;;5072091;28;20445;-83
2022/07/17 10:34:42;;;;;;;2.83;0.90;;;25.80;60.80;;;;;;5074442;28;20133;-83
2022/07/17 10:37:32;;;;;;;3.42;0.77;;;25.80;60.60;;;;;;5092985;28;20059;-82
2022/07/17 10:40:04;;;;;;;3.80;0.70;;;25.80;60.50;;;;;;5073831;28;20040;-83
2022/07/17 10:42:39;;;;;;;2.75;0.80;;;25.70;59.70;;;;;;5074320;28;20286;-83
2022/07/17 10:45:07;;;;;;;4.05;0.93;;;25.90;58.90;;;;;;5072513;28;20083;-83
2022/07/17 10:47:52;;;;;;;6.78;1.10;;;26.00;58.70;;;;;;5055907;28;20399;-83
2022/07/17 10:50:21;;;;;;;3.33;0.98;;;26.00;57.90;;;;;;5056607;28;20051;-83
2022/07/17 10:53:17;;;;;;;2.05;0.80;;;26.00;58.70;;;;;;5057544;28;20040;-82
2022/07/17 10:55:45;;;;;;;3.30;0.90;;;25.90;58.20;;;;;;5089190;28;20052;-83
2022/07/17 10:58:18;;;;;;;3.58;0.80;;;26.00;58.00;;;;;;5065264;28;20037;-83
2022/07/17 11:00:55;;;;;;;1.92;0.60;;;26.00;56.60;;;;;;5037413;28;20044;-84
2022/07/17 11:03:20;;;;;;;1.95;0.75;;;25.90;57.10;;;;;;5054087;28;20044;-83
2022/07/17 11:05:46;;;;;;;3.95;0.95;;;25.60;57.90;;;;;;5045342;28;20058;-82
2022/07/17 11:08:13;;;;;;;3.55;1.00;;;25.50;57.70;;;;;;5056506;28;20135;-83
2022/07/17 11:10:39;;;;;;;5.90;1.00;;;25.50;58.40;;;;;;5073731;28;20079;-82
2022/07/17 11:13:13;;;;;;;5.75;1.10;;;25.60;58.00;;;;;;5056606;28;20078;-83
2022/07/17 11:15:46;;;;;;;2.95;1.10;;;25.70;58.20;;;;;;5072097;28;20123;-82
2022/07/17 11:18:21;;;;;;;1.77;0.70;;;25.40;57.50;;;;;;5090167;28;20097;-83
2022/07/17 11:21:13;;;;;;;1.75;1.00;;;25.50;57.70;;;;;;5066907;28;20047;-82
2022/07/17 11:23:53;;;;;;;3.13;1.02;;;25.60;57.10;;;;;;5069718;28;20044;-82
2022/07/17 11:26:20;;;;;;;5.72;0.93;;;25.60;58.40;;;;;;5073425;28;20043;-82
2022/07/17 11:28:47;;;;;;;4.45;0.90;;;25.50;58.40;;;;;;5073527;28;20123;-83
2022/07/17 11:31:24;;;;;;;2.92;0.98;;;25.30;58.00;;;;;;5056487;28;20694;-83
2022/07/17 11:33:55;;;;;;;2.85;0.80;;;25.20;58.90;;;;;;5069644;28;20074;-83
2022/07/17 11:36:33;;;;;;;2.42;0.80;;;25.30;58.10;;;;;;5070211;28;20442;-82
2022/07/17 11:39:04;;;;;;;5.90;1.30;;;25.30;59.40;;;;;;5072376;28;20036;-83
2022/07/17 11:41:35;;;;;;;4.70;0.88;;;25.40;58.70;;;;;;5073818;28;20097;-79
2022/07/17 11:44:02;;;;;;;5.00;1.10;;;25.60;61.00;;;;;;5073604;28;20075;-80
2022/07/17 11:46:30;;;;;;;4.40;1.20;;;25.70;59.70;;;;;;5091366;28;20119;-80
2022/07/17 11:48:55;;;;;;;2.00;1.08;;;25.80;59.30;;;;;;5073355;28;20044;-80
2022/07/17 11:51:21;;;;;;;4.00;0.90;;;25.70;58.90;;;;;;5073084;28;20379;-80
2022/07/17 11:53:49;;;;;;;3.22;0.80;;;25.60;58.90;;;;;;5073284;28;20065;-80
2022/07/17 11:56:21;;;;;;;4.85;1.23;;;25.60;61.40;;;;;;5073491;28;20115;-81
2022/07/17 11:58:47;;;;;;;1.95;0.85;;;25.90;62.20;;;;;;5073565;28;20040;-79
2022/07/17 12:01:14;;;;;;;3.58;1.27;;;26.20;60.00;;;;;;5057023;28;20085;-80
2022/07/17 12:03:39;;;;;;;3.67;1.20;;;26.40;60.60;;;;;;5073466;28;20051;-79
2022/07/17 12:06:06;;;;;;;2.45;1.10;;;26.60;59.80;;;;;;5073679;28;20040;-80
2022/07/17 12:08:32;;;;;;;3.80;0.88;;;26.90;58.20;;;;;;5056981;28;20040;-79
2022/07/17 12:11:09;;;;;;;3.38;1.17;;;26.80;57.80;;;;;;5073435;28;20040;-80
2022/07/17 12:13:43;;;;;;;7.97;1.02;;;26.80;57.20;;;;;;5073452;28;20040;-79
2022/07/17 12:16:38;;;;;;;2.95;1.25;;;26.60;57.70;;;;;;5073657;28;20041;-80
2022/07/17 12:19:11;;;;;;;3.55;1.10;;;26.70;58.00;;;;;;5052893;28;20052;-79
2022/07/17 12:21:53;;;;;;;3.17;1.10;;;26.90;56.90;;;;;;5073715;28;20036;-80
2022/07/17 12:24:21;;;;;;;4.15;1.23;;;26.90;56.00;;;;;;5072455;28;20035;-79
2022/07/17 12:26:47;;;;;;;10.38;5.63;;;26.80;56.30;;;;;;5076932;28;20556;-80
2022/07/17 12:29:13;;;;;;;4.68;1.70;;;26.80;56.90;;;;;;5087187;28;20052;-79
2022/07/17 12:31:38;;;;;;;3.90;1.40;;;27.00;57.30;;;;;;5058269;28;20130;-79
2022/07/17 12:34:04;;;;;;;3.95;1.27;;;27.10;55.80;;;;;;5067294;28;20032;-79
2022/07/17 12:36:30;;;;;;;3.53;1.00;;;27.10;55.30;;;;;;5060571;28;20517;-79
2022/07/17 12:38:55;;;;;;;3.28;1.13;;;27.00;55.30;;;;;;5076579;28;20437;-80
2022/07/17 12:41:21;;;;;;;3.17;1.45;;;27.00;55.60;;;;;;5086601;28;20040;-79
2022/07/17 12:43:47;;;;;;;3.97;1.38;;;27.00;55.20;;;;;;5060010;28;20044;-79
2022/07/17 12:46:13;;;;;;;5.47;1.65;;;27.10;55.10;;;;;;5095834;28;20052;-79
2022/07/17 12:48:40;;;;;;;5.57;1.30;;;27.20;55.20;;;;;;5075953;28;20042;-79